Aeroporto :
LOGIN :

Iscrizione | Disclaimer

   EN    FR    IT 

 










Sommario :    VFR   VFR Marginale   IFR   IFR Intensivo   IFR Molto Intensivo
Visibilità : 
Base nubi : 
>= 8 km
>= 3000ft
5 / 8 km
1000 / 3000 ft
1500m / 5 km
500 / 1000 ft
800 / 1500m
200 / 500 ft
< 800m
< 200 ft
Simboli :   Temporali  Nebbia  Neve Forte  Precipitazioni Forti  Vento > 20 kt
SIGMETs :   Varie  Temporali  Ghiacco  Turbolenza  Onda orograficha  Ceneri Vulcaniche







- Altitudine del aeroporto : 26 ft
- Codice IATA : BIA
- Carte del aeroporto


LFKB - Bastia

ULTIMO METAR :
  • 210230Z AUTO 22004KT CAVOK 19/15 Q1017 NOSIG

METARs OBSOLETI :
  • 210200Z AUTO 22003KT CAVOK 19/16 Q1017 NOSIG
  • 210130Z AUTO VRB02KT CAVOK 19/16 Q1017 NOSIG
  • 210100Z AUTO 22002KT CAVOK 19/16 Q1017 NOSIG
  • 210030Z AUTO 25003KT CAVOK 20/16 Q1017 NOSIG
  • 210000Z AUTO 21003KT CAVOK 20/16 Q1017 NOSIG

TAF TAF LFKB
Valido dal 21 a 03 ore il 22 a 03 ore UTC


210200Z 2103/2203 23003KT CAVOK
BECMG 2107/2109 12010KT TX29/2112Z TN19/2103Z
ATIS : +33 4 95 59 19 40
Nessun NOTAM noto per questo aeroporto.



MetMap, La meteo Aeronautica in un colpo d'occhio ! - Copyright ORBIFLY Dicembre 2007 - Disclaimer

ORBIFLY MET'MAP TEAM :

Programmazione e sviluppo : Alexandra Zaïnal
Concezione e sviluppo : Baudouin d'Aumeries
Co-Programmazione e sviluppo : Marc-Olivier Méhu
Supporto tecnico e logistico : Manuel Goepfert
Aiuto per la traduzione : Arnaldo La Scala

Contatto : metmap@orbifly.com




FONTI E CREDITI :

   NOAA